sensor_id;sensor_type;location;lat;lon;timestamp;pressure;altitude;pressure_sealevel;temperature;humidity
49813;BME280;35706;52.100;5.056;2023-04-25T00:00:24;101046.84;;;7.69;87.00
49813;BME280;35706;52.100;5.056;2023-04-25T00:01:25;101046.56;;;7.61;85.68
49813;BME280;35706;52.100;5.056;2023-04-25T00:02:25;101041.59;;;7.69;85.35
49813;BME280;35706;52.100;5.056;2023-04-25T00:03:25;101039.25;;;7.78;84.82
49813;BME280;35706;52.100;5.056;2023-04-25T00:04:27;101044.06;;;7.84;84.39
49813;BME280;35706;52.100;5.056;2023-04-25T00:05:27;101040.75;;;7.93;83.96
49813;BME280;35706;52.100;5.056;2023-04-25T00:06:29;101044.06;;;7.84;83.77
49813;BME280;35706;52.100;5.056;2023-04-25T00:07:30;101040.44;;;7.73;84.57
49813;BME280;35706;52.100;5.056;2023-04-25T00:08:31;101044.78;;;7.86;83.99
49813;BME280;35706;52.100;5.056;2023-04-25T00:09:31;101041.09;;;7.88;83.63
49813;BME280;35706;52.100;5.056;2023-04-25T00:10:31;101037.91;;;7.96;83.70
49813;BME280;35706;52.100;5.056;2023-04-25T00:11:32;101046.72;;;8.06;83.20
49813;BME280;35706;52.100;5.056;2023-04-25T00:12:32;101043.16;;;8.07;83.14
49813;BME280;35706;52.100;5.056;2023-04-25T00:13:33;101036.25;;;8.06;82.91
49813;BME280;35706;52.100;5.056;2023-04-25T00:14:34;101040.91;;;8.03;82.70
49813;BME280;35706;52.100;5.056;2023-04-25T00:15:35;101046.00;;;8.04;82.81
49813;BME280;35706;52.100;5.056;2023-04-25T00:16:37;101044.91;;;7.95;82.66
49813;BME280;35706;52.100;5.056;2023-04-25T00:17:38;101042.28;;;7.95;82.83
49813;BME280;35706;52.100;5.056;2023-04-25T00:18:38;101042.53;;;7.92;82.72
49813;BME280;35706;52.100;5.056;2023-04-25T00:19:39;101049.09;;;7.98;82.71
49813;BME280;35706;52.100;5.056;2023-04-25T00:20:40;101043.47;;;7.91;82.29
49813;BME280;35706;52.100;5.056;2023-04-25T00:21:40;101049.56;;;7.92;82.48
49813;BME280;35706;52.100;5.056;2023-04-25T00:22:40;101050.00;;;7.86;82.86
49813;BME280;35706;52.100;5.056;2023-04-25T00:23:41;101052.38;;;7.89;82.68
49813;BME280;35706;52.100;5.056;2023-04-25T00:24:41;101050.59;;;7.89;82.47
49813;BME280;35706;52.100;5.056;2023-04-25T00:25:42;101053.56;;;7.85;82.36
49813;BME280;35706;52.100;5.056;2023-04-25T00:26:42;101061.75;;;7.80;82.78
49813;BME280;35706;52.100;5.056;2023-04-25T00:27:42;101058.50;;;7.77;82.46
49813;BME280;35706;52.100;5.056;2023-04-25T00:28:43;101054.34;;;7.74;82.57
49813;BME280;35706;52.100;5.056;2023-04-25T00:29:43;101055.06;;;7.76;82.57
49813;BME280;35706;52.100;5.056;2023-04-25T00:30:43;101062.81;;;7.78;82.39
49813;BME280;35706;52.100;5.056;2023-04-25T00:31:43;101059.13;;;7.80;82.24
49813;BME280;35706;52.100;5.056;2023-04-25T00:32:44;101057.75;;;7.87;81.91
49813;BME280;35706;52.100;5.056;2023-04-25T00:33:44;101062.38;;;7.84;81.76
49813;BME280;35706;52.100;5.056;2023-04-25T00:34:44;101065.16;;;7.69;82.18
49813;BME280;35706;52.100;5.056;2023-04-25T00:35:45;101060.88;;;7.68;82.37
49813;BME280;35706;52.100;5.056;2023-04-25T00:36:45;101065.88;;;7.71;82.21
49813;BME280;35706;52.100;5.056;2023-04-25T00:37:45;101065.78;;;7.73;82.21
49813;BME280;35706;52.100;5.056;2023-04-25T00:38:46;101063.72;;;7.65;82.58
49813;BME280;35706;52.100;5.056;2023-04-25T00:39:46;101053.69;;;7.59;83.17
49813;BME280;35706;52.100;5.056;2023-04-25T00:40:46;101057.47;;;7.79;83.02
49813;BME280;35706;52.100;5.056;2023-04-25T00:41:47;101061.84;;;7.79;82.57
49813;BME280;35706;52.100;5.056;2023-04-25T00:42:49;101064.81;;;7.74;82.96
49813;BME280;35706;52.100;5.056;2023-04-25T00:43:49;101060.38;;;7.63;83.61
49813;BME280;35706;52.100;5.056;2023-04-25T00:44:52;101060.47;;;7.62;83.41
49813;BME280;35706;52.100;5.056;2023-04-25T00:45:53;101065.31;;;7.55;84.14
49813;BME280;35706;52.100;5.056;2023-04-25T00:46:53;101067.94;;;7.55;84.05
49813;BME280;35706;52.100;5.056;2023-04-25T00:47:54;101059.16;;;7.56;84.23
49813;BME280;35706;52.100;5.056;2023-04-25T00:48:55;101063.44;;;7.57;84.28
49813;BME280;35706;52.100;5.056;2023-04-25T00:49:55;101066.66;;;7.61;84.00
49813;BME280;35706;52.100;5.056;2023-04-25T00:50:57;101066.63;;;7.49;84.34
49813;BME280;35706;52.100;5.056;2023-04-25T00:51:58;101063.03;;;7.50;84.42
49813;BME280;35706;52.100;5.056;2023-04-25T00:52:59;101058.16;;;7.46;84.70
49813;BME280;35706;52.100;5.056;2023-04-25T00:53:59;101060.88;;;7.44;84.74
49813;BME280;35706;52.100;5.056;2023-04-25T00:55:00;101058.34;;;7.43;85.26
49813;BME280;35706;52.100;5.056;2023-04-25T00:56:00;101063.00;;;7.39;85.07
49813;BME280;35706;52.100;5.056;2023-04-25T00:57:01;101063.91;;;7.38;85.15
49813;BME280;35706;52.100;5.056;2023-04-25T00:58:02;101064.59;;;7.29;85.41
49813;BME280;35706;52.100;5.056;2023-04-25T00:59:03;101058.47;;;7.41;85.47
49813;BME280;35706;52.100;5.056;2023-04-25T01:00:06;101061.81;;;7.43;85.26
49813;BME280;35706;52.100;5.056;2023-04-25T01:01:07;101060.47;;;7.38;85.11
49813;BME280;35706;52.100;5.056;2023-04-25T01:02:08;101060.25;;;7.41;85.39
49813;BME280;35706;52.100;5.056;2023-04-25T01:03:09;101058.34;;;7.43;84.91
49813;BME280;35706;52.100;5.056;2023-04-25T01:04:10;101061.25;;;7.51;84.66
49813;BME280;35706;52.100;5.056;2023-04-25T01:05:11;101064.03;;;7.37;84.53
49813;BME280;35706;52.100;5.056;2023-04-25T01:06:12;101063.19;;;7.36;84.74
49813;BME280;35706;52.100;5.056;2023-04-25T01:07:13;101072.16;;;7.45;84.08
49813;BME280;35706;52.100;5.056;2023-04-25T01:08:14;101064.81;;;7.50;84.00
49813;BME280;35706;52.100;5.056;2023-04-25T01:09:14;101062.09;;;7.51;83.76
49813;BME280;35706;52.100;5.056;2023-04-25T01:10:15;101065.22;;;7.57;83.78
49813;BME280;35706;52.100;5.056;2023-04-25T01:11:15;101064.97;;;7.60;83.28
49813;BME280;35706;52.100;5.056;2023-04-25T01:12:16;101067.28;;;7.64;83.29
49813;BME280;35706;52.100;5.056;2023-04-25T01:13:16;101059.78;;;7.47;83.12
49813;BME280;35706;52.100;5.056;2023-04-25T01:14:16;101064.44;;;7.43;83.55
49813;BME280;35706;52.100;5.056;2023-04-25T01:15:17;101074.38;;;7.38;84.05
49813;BME280;35706;52.100;5.056;2023-04-25T01:16:17;101070.69;;;7.41;84.16
49813;BME280;35706;52.100;5.056;2023-04-25T01:17:18;101073.06;;;7.32;84.22
49813;BME280;35706;52.100;5.056;2023-04-25T01:18:19;101065.66;;;7.26;84.83
49813;BME280;35706;52.100;5.056;2023-04-25T01:19:20;101066.66;;;7.37;84.63
49813;BME280;35706;52.100;5.056;2023-04-25T01:20:22;101055.97;;;7.40;84.29
49813;BME280;35706;52.100;5.056;2023-04-25T01:21:27;101064.59;;;7.29;84.42
49813;BME280;35706;52.100;5.056;2023-04-25T01:22:29;101066.66;;;7.37;84.40
49813;BME280;35706;52.100;5.056;2023-04-25T01:23:31;101064.06;;;7.24;84.94
49813;BME280;35706;52.100;5.056;2023-04-25T01:24:33;101066.66;;;7.37;84.68
49813;BME280;35706;52.100;5.056;2023-04-25T01:25:34;101069.16;;;7.38;84.35
49813;BME280;35706;52.100;5.056;2023-04-25T01:26:35;101068.94;;;7.41;84.01
49813;BME280;35706;52.100;5.056;2023-04-25T01:27:36;101066.91;;;7.21;83.97
49813;BME280;35706;52.100;5.056;2023-04-25T01:28:37;101073.28;;;7.17;84.26
49813;BME280;35706;52.100;5.056;2023-04-25T01:29:41;101073.63;;;7.12;84.26
49813;BME280;35706;52.100;5.056;2023-04-25T01:30:42;101078.63;;;7.15;84.24
49813;BME280;35706;52.100;5.056;2023-04-25T01:31:44;101079.25;;;7.19;83.94
49813;BME280;35706;52.100;5.056;2023-04-25T01:32:44;101084.91;;;7.12;84.11
49813;BME280;35706;52.100;5.056;2023-04-25T01:33:45;101077.47;;;7.19;83.79
49813;BME280;35706;52.100;5.056;2023-04-25T01:34:46;101079.47;;;7.16;83.46
49813;BME280;35706;52.100;5.056;2023-04-25T01:35:46;101087.53;;;7.12;83.16
49813;BME280;35706;52.100;5.056;2023-04-25T01:36:49;101075.19;;;7.14;83.01
49813;BME280;35706;52.100;5.056;2023-04-25T01:37:51;101081.47;;;7.12;83.16
49813;BME280;35706;52.100;5.056;2023-04-25T01:38:51;101078.03;;;7.11;83.02
49813;BME280;35706;52.100;5.056;2023-04-25T01:39:52;101078.22;;;7.08;82.94
49813;BME280;35706;52.100;5.056;2023-04-25T01:40:53;101082.19;;;7.14;82.71
49813;BME280;35706;52.100;5.056;2023-04-25T01:41:55;101086.38;;;7.04;82.88
49813;BME280;35706;52.100;5.056;2023-04-25T01:42:55;101085.66;;;7.02;83.10
49813;BME280;35706;52.100;5.056;2023-04-25T01:43:56;101082.84;;;7.05;83.11
49813;BME280;35706;52.100;5.056;2023-04-25T01:44:56;101087.03;;;7.07;83.02
49813;BME280;35706;52.100;5.056;2023-04-25T01:45:57;101087.84;;;7.08;82.70
49813;BME280;35706;52.100;5.056;2023-04-25T01:46:58;101087.34;;;7.03;82.68
49813;BME280;35706;52.100;5.056;2023-04-25T01:47:58;101089.09;;;7.02;82.90
49813;BME280;35706;52.100;5.056;2023-04-25T01:48:59;101089.97;;;7.03;82.81
49813;BME280;35706;52.100;5.056;2023-04-25T01:50:00;101090.88;;;7.02;82.77
49813;BME280;35706;52.100;5.056;2023-04-25T01:51:01;101089.22;;;7.01;82.66
49813;BME280;35706;52.100;5.056;2023-04-25T01:52:01;101093.59;;;7.00;82.63
49813;BME280;35706;52.100;5.056;2023-04-25T01:53:01;101093.59;;;7.00;82.64
49813;BME280;35706;52.100;5.056;2023-04-25T01:54:02;101094.16;;;6.92;82.72
49813;BME280;35706;52.100;5.056;2023-04-25T01:55:03;101097.38;;;6.96;82.72
49813;BME280;35706;52.100;5.056;2023-04-25T01:56:04;101093.94;;;6.96;82.64
49813;BME280;35706;52.100;5.056;2023-04-25T01:57:04;101102.00;;;6.92;82.61
49813;BME280;35706;52.100;5.056;2023-04-25T01:58:05;101097.69;;;6.91;82.86
49813;BME280;35706;52.100;5.056;2023-04-25T01:59:12;101101.47;;;6.87;82.99
49813;BME280;35706;52.100;5.056;2023-04-25T02:00:13;101104.78;;;6.89;83.13
49813;BME280;35706;52.100;5.056;2023-04-25T02:01:13;101098.97;;;6.86;83.39
49813;BME280;35706;52.100;5.056;2023-04-25T02:02:14;101103.88;;;6.90;83.23
49813;BME280;35706;52.100;5.056;2023-04-25T02:03:14;101104.06;;;6.87;83.22
49813;BME280;35706;52.100;5.056;2023-04-25T02:04:15;101105.84;;;6.87;83.08
49813;BME280;35706;52.100;5.056;2023-04-25T02:05:15;101098.84;;;6.87;83.07
49813;BME280;35706;52.100;5.056;2023-04-25T02:06:15;101108.25;;;6.90;83.20
49813;BME280;35706;52.100;5.056;2023-04-25T02:07:15;101109.81;;;6.92;83.14
49813;BME280;35706;52.100;5.056;2023-04-25T02:08:16;101105.53;;;6.91;82.73
49813;BME280;35706;52.100;5.056;2023-04-25T02:09:17;101100.53;;;6.88;83.19
49813;BME280;35706;52.100;5.056;2023-04-25T02:10:17;101097.50;;;6.95;82.87
49813;BME280;35706;52.100;5.056;2023-04-25T02:11:17;101101.13;;;6.92;82.90
49813;BME280;35706;52.100;5.056;2023-04-25T02:12:18;101103.75;;;6.92;82.99
49813;BME280;35706;52.100;5.056;2023-04-25T02:13:18;101102.19;;;6.89;83.06
49813;BME280;35706;52.100;5.056;2023-04-25T02:14:18;101105.13;;;6.85;83.10
49813;BME280;35706;52.100;5.056;2023-04-25T02:15:19;101097.59;;;6.80;83.30
49813;BME280;35706;52.100;5.056;2023-04-25T02:16:20;101101.78;;;6.83;83.36
49813;BME280;35706;52.100;5.056;2023-04-25T02:17:20;101102.59;;;6.83;83.40
49813;BME280;35706;52.100;5.056;2023-04-25T02:18:21;101106.28;;;6.81;83.55
49813;BME280;35706;52.100;5.056;2023-04-25T02:19:22;101101.13;;;6.79;83.57
49813;BME280;35706;52.100;5.056;2023-04-25T02:20:23;101104.28;;;6.84;83.64
49813;BME280;35706;52.100;5.056;2023-04-25T02:21:24;101111.19;;;6.85;83.64
49813;BME280;35706;52.100;5.056;2023-04-25T02:22:26;101111.19;;;6.72;83.78
49813;BME280;35706;52.100;5.056;2023-04-25T02:23:28;101107.41;;;6.77;83.65
49813;BME280;35706;52.100;5.056;2023-04-25T02:24:28;101108.06;;;6.80;83.70
49813;BME280;35706;52.100;5.056;2023-04-25T02:25:29;101111.41;;;6.82;83.31
49813;BME280;35706;52.100;5.056;2023-04-25T02:26:29;101106.16;;;6.82;83.25
49813;BME280;35706;52.100;5.056;2023-04-25T02:27:30;101106.16;;;6.82;83.30
49813;BME280;35706;52.100;5.056;2023-04-25T02:28:31;101104.28;;;6.84;83.08
49813;BME280;35706;52.100;5.056;2023-04-25T02:29:31;101106.28;;;6.81;83.12
49813;BME280;35706;52.100;5.056;2023-04-25T02:30:31;101104.50;;;6.81;83.28
49813;BME280;35706;52.100;5.056;2023-04-25T02:31:32;101102.81;;;6.80;83.02
49813;BME280;35706;52.100;5.056;2023-04-25T02:32:32;101103.66;;;6.81;83.05
49813;BME280;35706;52.100;5.056;2023-04-25T02:33:34;101103.88;;;6.78;83.15
49813;BME280;35706;52.100;5.056;2023-04-25T02:34:34;101106.38;;;6.79;83.26
49813;BME280;35706;52.100;5.056;2023-04-25T02:35:35;101097.78;;;6.77;83.21
49813;BME280;35706;52.100;5.056;2023-04-25T02:36:35;101099.59;;;6.77;83.19
49813;BME280;35706;52.100;5.056;2023-04-25T02:37:37;101104.72;;;6.78;82.82
49813;BME280;35706;52.100;5.056;2023-04-25T02:38:38;101106.59;;;6.76;83.05
49813;BME280;35706;52.100;5.056;2023-04-25T02:39:38;101111.59;;;6.79;82.93
49813;BME280;35706;52.100;5.056;2023-04-25T02:40:38;101107.41;;;6.77;83.20
49813;BME280;35706;52.100;5.056;2023-04-25T02:41:39;101108.16;;;6.79;82.92
49813;BME280;35706;52.100;5.056;2023-04-25T02:42:39;101105.94;;;6.72;83.09
49813;BME280;35706;52.100;5.056;2023-04-25T02:43:39;101117.22;;;6.73;83.35
49813;BME280;35706;52.100;5.056;2023-04-25T02:44:40;101116.94;;;6.78;82.95
49813;BME280;35706;52.100;5.056;2023-04-25T02:45:40;101111.81;;;6.76;82.92
49813;BME280;35706;52.100;5.056;2023-04-25T02:46:40;101111.91;;;6.75;82.85
49813;BME280;35706;52.100;5.056;2023-04-25T02:47:40;101114.63;;;6.73;82.85
49813;BME280;35706;52.100;5.056;2023-04-25T02:48:41;101114.94;;;6.68;83.12
49813;BME280;35706;52.100;5.056;2023-04-25T02:49:41;101111.19;;;6.72;82.82
49813;BME280;35706;52.100;5.056;2023-04-25T02:50:41;101117.22;;;6.73;83.20
49813;BME280;35706;52.100;5.056;2023-04-25T02:51:42;101111.81;;;6.63;83.37
49813;BME280;35706;52.100;5.056;2023-04-25T02:52:42;101116.31;;;6.61;83.47
49813;BME280;35706;52.100;5.056;2023-04-25T02:53:44;101115.06;;;6.67;83.56
49813;BME280;35706;52.100;5.056;2023-04-25T02:54:44;101113.69;;;6.61;83.71
49813;BME280;35706;52.100;5.056;2023-04-25T02:55:44;101113.38;;;6.66;83.96
49813;BME280;35706;52.100;5.056;2023-04-25T02:56:45;101108.97;;;6.79;83.70
49813;BME280;35706;52.100;5.056;2023-04-25T02:57:45;101107.63;;;6.86;83.28
49813;BME280;35706;52.100;5.056;2023-04-25T02:58:45;101109.69;;;6.94;82.68
49813;BME280;35706;52.100;5.056;2023-04-25T02:59:45;101117.53;;;6.94;82.44
49813;BME280;35706;52.100;5.056;2023-04-25T03:00:46;101115.38;;;6.88;82.25
49813;BME280;35706;52.100;5.056;2023-04-25T03:01:46;101118.69;;;6.90;82.18
49813;BME280;35706;52.100;5.056;2023-04-25T03:02:46;101116.06;;;6.90;81.79
49813;BME280;35706;52.100;5.056;2023-04-25T03:03:47;101115.47;;;6.86;81.52
49813;BME280;35706;52.100;5.056;2023-04-25T03:04:47;101116.09;;;6.77;81.84
49813;BME280;35706;52.100;5.056;2023-04-25T03:05:51;101122.03;;;6.79;81.91
49813;BME280;35706;52.100;5.056;2023-04-25T03:06:52;101117.78;;;6.78;82.19
49813;BME280;35706;52.100;5.056;2023-04-25T03:07:53;101112.75;;;6.75;81.80
49813;BME280;35706;52.100;5.056;2023-04-25T03:08:53;101119.56;;;6.78;81.99
49813;BME280;35706;52.100;5.056;2023-04-25T03:09:53;101124.38;;;6.71;82.24
49813;BME280;35706;52.100;5.056;2023-04-25T03:10:55;101119.66;;;6.76;82.60
49813;BME280;35706;52.100;5.056;2023-04-25T03:11:55;101119.00;;;6.85;82.32
49813;BME280;35706;52.100;5.056;2023-04-25T03:12:56;101123.09;;;6.89;82.06
49813;BME280;35706;52.100;5.056;2023-04-25T03:13:56;101119.31;;;6.93;81.70
49813;BME280;35706;52.100;5.056;2023-04-25T03:14:56;101131.16;;;6.99;81.57
49813;BME280;35706;52.100;5.056;2023-04-25T03:15:57;101127.88;;;7.08;80.90
49813;BME280;35706;52.100;5.056;2023-04-25T03:16:57;101136.13;;;7.15;80.38
49813;BME280;35706;52.100;5.056;2023-04-25T03:17:57;101138.84;;;7.26;80.21
49813;BME280;35706;52.100;5.056;2023-04-25T03:18:58;101127.00;;;7.33;79.96
49813;BME280;35706;52.100;5.056;2023-04-25T03:19:58;101143.53;;;7.34;79.93
49813;BME280;35706;52.100;5.056;2023-04-25T03:20:58;101140.47;;;7.40;80.27
49813;BME280;35706;52.100;5.056;2023-04-25T03:21:58;101142.50;;;7.37;80.72
49813;BME280;35706;52.100;5.056;2023-04-25T03:22:59;101144.47;;;7.33;81.07
49813;BME280;35706;52.100;5.056;2023-04-25T03:24:02;101137.91;;;7.27;81.77
49813;BME280;35706;52.100;5.056;2023-04-25T03:25:03;101138.66;;;7.17;82.28
49813;BME280;35706;52.100;5.056;2023-04-25T03:26:03;101134.38;;;7.16;82.36
49813;BME280;35706;52.100;5.056;2023-04-25T03:27:04;101135.41;;;7.00;81.86
49813;BME280;35706;52.100;5.056;2023-04-25T03:28:04;101137.50;;;7.08;82.03
49813;BME280;35706;52.100;5.056;2023-04-25T03:29:05;101128.94;;;6.93;82.10
49813;BME280;35706;52.100;5.056;2023-04-25T03:30:05;101132.06;;;6.98;82.68
49813;BME280;35706;52.100;5.056;2023-04-25T03:31:06;101133.94;;;7.09;82.34
49813;BME280;35706;52.100;5.056;2023-04-25T03:32:06;101132.06;;;7.11;82.39
49813;BME280;35706;52.100;5.056;2023-04-25T03:33:07;101130.81;;;7.17;82.22
49813;BME280;35706;52.100;5.056;2023-04-25T03:34:07;101128.91;;;7.19;82.18
49813;BME280;35706;52.100;5.056;2023-04-25T03:35:08;101128.16;;;7.29;82.45
49813;BME280;35706;52.100;5.056;2023-04-25T03:36:08;101124.31;;;7.22;82.35
49813;BME280;35706;52.100;5.056;2023-04-25T03:37:08;101130.38;;;7.23;82.01
49813;BME280;35706;52.100;5.056;2023-04-25T03:38:09;101121.28;;;7.28;81.64
49813;BME280;35706;52.100;5.056;2023-04-25T03:39:09;101128.16;;;7.29;81.32
49813;BME280;35706;52.100;5.056;2023-04-25T03:40:09;101125.56;;;7.17;80.24
49813;BME280;35706;52.100;5.056;2023-04-25T03:41:10;101128.13;;;7.05;81.13
49813;BME280;35706;52.100;5.056;2023-04-25T03:42:10;101123.31;;;6.99;81.15
49813;BME280;35706;52.100;5.056;2023-04-25T03:43:10;101123.72;;;6.80;81.85
49813;BME280;35706;52.100;5.056;2023-04-25T03:44:11;101125.94;;;6.86;81.31
49813;BME280;35706;52.100;5.056;2023-04-25T03:45:11;101130.31;;;6.86;81.38
49813;BME280;35706;52.100;5.056;2023-04-25T03:46:12;101128.13;;;6.80;81.74
49813;BME280;35706;52.100;5.056;2023-04-25T03:47:12;101126.53;;;6.77;82.17
49813;BME280;35706;52.100;5.056;2023-04-25T03:48:12;101134.19;;;6.80;82.47
49813;BME280;35706;52.100;5.056;2023-04-25T03:49:13;101133.44;;;6.78;82.60
49813;BME280;35706;52.100;5.056;2023-04-25T03:50:13;101135.66;;;6.84;82.63
49813;BME280;35706;52.100;5.056;2023-04-25T03:51:14;101131.66;;;6.79;82.60
49813;BME280;35706;52.100;5.056;2023-04-25T03:52:14;101134.19;;;6.80;82.77
49813;BME280;35706;52.100;5.056;2023-04-25T03:53:14;101135.66;;;6.84;82.59
49813;BME280;35706;52.100;5.056;2023-04-25T03:54:15;101135.00;;;6.81;82.43
49813;BME280;35706;52.100;5.056;2023-04-25T03:55:15;101128.13;;;6.80;82.53
49813;BME280;35706;52.100;5.056;2023-04-25T03:56:15;101142.53;;;6.72;82.93
49813;BME280;35706;52.100;5.056;2023-04-25T03:57:16;101139.09;;;6.72;83.53
49813;BME280;35706;52.100;5.056;2023-04-25T03:58:16;101149.31;;;6.75;83.51
49813;BME280;35706;52.100;5.056;2023-04-25T03:59:16;101146.69;;;6.75;83.58
49813;BME280;35706;52.100;5.056;2023-04-25T04:00:17;101148.59;;;6.73;83.34
49813;BME280;35706;52.100;5.056;2023-04-25T04:01:17;101151.50;;;6.68;83.71
49813;BME280;35706;52.100;5.056;2023-04-25T04:02:18;101148.72;;;6.71;83.71
49813;BME280;35706;52.100;5.056;2023-04-25T04:03:18;101152.25;;;6.70;83.76
49813;BME280;35706;52.100;5.056;2023-04-25T04:04:18;101150.19;;;6.76;83.80
49813;BME280;35706;52.100;5.056;2023-04-25T04:05:18;101151.84;;;6.89;83.69
49813;BME280;35706;52.100;5.056;2023-04-25T04:06:19;101159.81;;;6.88;83.77
49813;BME280;35706;52.100;5.056;2023-04-25T04:07:20;101155.50;;;7.00;82.96
49813;BME280;35706;52.100;5.056;2023-04-25T04:08:21;101151.41;;;6.96;82.88
49813;BME280;35706;52.100;5.056;2023-04-25T04:09:21;101158.00;;;7.01;82.90
49813;BME280;35706;52.100;5.056;2023-04-25T04:10:22;101164.06;;;7.02;82.45
49813;BME280;35706;52.100;5.056;2023-04-25T04:11:22;101154.34;;;7.04;82.43
49813;BME280;35706;52.100;5.056;2023-04-25T04:12:22;101154.75;;;7.10;82.47
49813;BME280;35706;52.100;5.056;2023-04-25T04:13:23;101155.28;;;7.16;82.27
49813;BME280;35706;52.100;5.056;2023-04-25T04:14:23;101163.88;;;7.05;81.07
49813;BME280;35706;52.100;5.056;2023-04-25T04:15:23;101165.03;;;7.01;81.46
49813;BME280;35706;52.100;5.056;2023-04-25T04:16:24;101159.78;;;7.13;80.94
49813;BME280;35706;52.100;5.056;2023-04-25T04:17:24;101156.44;;;7.11;80.83
49813;BME280;35706;52.100;5.056;2023-04-25T04:18:25;101166.69;;;7.02;79.98
49813;BME280;35706;52.100;5.056;2023-04-25T04:19:25;101168.25;;;7.04;80.28
49813;BME280;35706;52.100;5.056;2023-04-25T04:20:26;101174.75;;;6.99;80.55
49813;BME280;35706;52.100;5.056;2023-04-25T04:21:26;101168.34;;;6.90;80.87
49813;BME280;35706;52.100;5.056;2023-04-25T04:22:27;101170.75;;;6.80;81.00
49813;BME280;35706;52.100;5.056;2023-04-25T04:23:27;101175.16;;;6.92;80.86
49813;BME280;35706;52.100;5.056;2023-04-25T04:24:28;101181.31;;;7.04;80.61
49813;BME280;35706;52.100;5.056;2023-04-25T04:25:28;101174.31;;;7.18;79.77
49813;BME280;35706;52.100;5.056;2023-04-25T04:26:31;101180.78;;;7.12;79.70
49813;BME280;35706;52.100;5.056;2023-04-25T04:27:32;101183.50;;;6.98;80.12
49813;BME280;35706;52.100;5.056;2023-04-25T04:28:33;101184.56;;;6.95;79.85
49813;BME280;35706;52.100;5.056;2023-04-25T04:29:33;101186.94;;;6.98;79.96
49813;BME280;35706;52.100;5.056;2023-04-25T04:30:33;101190.94;;;6.91;79.65
49813;BME280;35706;52.100;5.056;2023-04-25T04:31:36;101186.22;;;6.83;79.94
49813;BME280;35706;52.100;5.056;2023-04-25T04:32:36;101187.69;;;6.87;80.05
49813;BME280;35706;52.100;5.056;2023-04-25T04:33:37;101186.22;;;6.96;79.69
49813;BME280;35706;52.100;5.056;2023-04-25T04:34:37;101184.56;;;6.95;79.44
49813;BME280;35706;52.100;5.056;2023-04-25T04:35:39;101185.94;;;7.01;79.25
49813;BME280;35706;52.100;5.056;2023-04-25T04:36:39;101189.56;;;6.85;79.87
49813;BME280;35706;52.100;5.056;2023-04-25T04:37:40;101191.66;;;6.80;79.86
49813;BME280;35706;52.100;5.056;2023-04-25T04:38:40;101196.06;;;6.80;80.45
49813;BME280;35706;52.100;5.056;2023-04-25T04:39:41;101191.25;;;6.86;80.26
49813;BME280;35706;52.100;5.056;2023-04-25T04:40:41;101193.94;;;6.72;80.65
49813;BME280;35706;52.100;5.056;2023-04-25T04:41:45;101188.97;;;6.82;81.09
49813;BME280;35706;52.100;5.056;2023-04-25T04:42:45;101190.84;;;6.80;81.14
49813;BME280;35706;52.100;5.056;2023-04-25T04:43:45;101184.16;;;6.88;81.43
49813;BME280;35706;52.100;5.056;2023-04-25T04:44:46;101189.69;;;6.84;80.74
49813;BME280;35706;52.100;5.056;2023-04-25T04:45:46;101186.03;;;6.86;80.91
49813;BME280;35706;52.100;5.056;2023-04-25T04:46:47;101188.72;;;6.85;81.25
49813;BME280;35706;52.100;5.056;2023-04-25T04:47:48;101186.63;;;6.90;81.30
49813;BME280;35706;52.100;5.056;2023-04-25T04:48:49;101184.47;;;6.97;80.85
49813;BME280;35706;52.100;5.056;2023-04-25T04:49:49;101184.56;;;6.95;80.32
49813;BME280;35706;52.100;5.056;2023-04-25T04:50:50;101182.78;;;6.96;80.48
49813;BME280;35706;52.100;5.056;2023-04-25T04:51:50;101174.75;;;6.99;80.53
49813;BME280;35706;52.100;5.056;2023-04-25T04:52:50;101189.69;;;7.09;80.30
49813;BME280;35706;52.100;5.056;2023-04-25T04:53:51;101189.88;;;7.19;79.52
49813;BME280;35706;52.100;5.056;2023-04-25T04:54:51;101192.50;;;7.19;79.36
49813;BME280;35706;52.100;5.056;2023-04-25T04:55:51;101195.66;;;7.11;79.44
49813;BME280;35706;52.100;5.056;2023-04-25T04:56:52;101189.88;;;7.06;79.68
49813;BME280;35706;52.100;5.056;2023-04-25T04:57:52;101201.91;;;6.96;79.89
49813;BME280;35706;52.100;5.056;2023-04-25T04:58:53;101195.94;;;7.07;79.94
49813;BME280;35706;52.100;5.056;2023-04-25T04:59:53;101201.16;;;7.07;79.81
49813;BME280;35706;52.100;5.056;2023-04-25T05:00:53;101200.66;;;7.14;79.98
49813;BME280;35706;52.100;5.056;2023-04-25T05:01:53;101205.78;;;7.16;79.47
49813;BME280;35706;52.100;5.056;2023-04-25T05:02:55;101198.56;;;7.07;79.30
49813;BME280;35706;52.100;5.056;2023-04-25T05:03:56;101206.72;;;7.15;79.27
49813;BME280;35706;52.100;5.056;2023-04-25T05:05:00;101203.38;;;7.13;79.12
49813;BME280;35706;52.100;5.056;2023-04-25T05:06:00;101203.38;;;7.13;79.01
49813;BME280;35706;52.100;5.056;2023-04-25T05:07:00;101211.00;;;7.16;78.89
49813;BME280;35706;52.100;5.056;2023-04-25T05:08:00;101215.28;;;7.17;78.70
49813;BME280;35706;52.100;5.056;2023-04-25T05:09:01;101217.16;;;7.15;78.94
49813;BME280;35706;52.100;5.056;2023-04-25T05:10:01;101209.66;;;7.10;79.39
49813;BME280;35706;52.100;5.056;2023-04-25T05:11:02;101211.75;;;7.18;79.42
49813;BME280;35706;52.100;5.056;2023-04-25T05:12:02;101213.09;;;7.11;79.46
49813;BME280;35706;52.100;5.056;2023-04-25T05:13:03;101224.59;;;7.08;79.77
49813;BME280;35706;52.100;5.056;2023-04-25T05:14:03;101217.59;;;7.09;79.85
49813;BME280;35706;52.100;5.056;2023-04-25T05:15:04;101216.75;;;7.21;79.46
49813;BME280;35706;52.100;5.056;2023-04-25T05:16:04;101218.22;;;7.25;78.64
49813;BME280;35706;52.100;5.056;2023-04-25T05:17:05;101224.91;;;7.17;78.54
49813;BME280;35706;52.100;5.056;2023-04-25T05:18:08;101226.16;;;7.11;78.95
49813;BME280;35706;52.100;5.056;2023-04-25T05:19:08;101226.38;;;7.08;79.18
49813;BME280;35706;52.100;5.056;2023-04-25T05:20:09;101228.03;;;7.09;79.80
49813;BME280;35706;52.100;5.056;2023-04-25T05:21:10;101225.88;;;7.16;79.60